Schedule Details


Flight Number: CTN419
Departure: Frankfurt/main (EDDF) at 15:10
Arrival: Cilipi (LDDU) at 17:00
Route: NOMBO UZ738 MUN UM867 VAROB DCT GIMIX DCT ROKSA UY450 NERRA

Weather Information
EDDF 242150Z 07005KT CAVOK 23/16 Q1019 NOSIG
LDDU 242130Z 05009KT 020V100 CAVOK 26/14 Q1016
Schedule Frequency

Route Map